Airfield :
LOGIN :

Register | Disclaimer

   EN    FR    IT 

 










Legend :    VFR   Marginal VFR   IFR   Intensive IFR   Very Intensive IFR
Visi :
Ceiling :
>= 8 km
>= 3000ft
5 to 8 km
1000 to 3000 ft
1500m to 5 km
500 to 1000 ft
800 to 1500m
200 to 500 ft
< 800m
< 200 ft
Symbols :   Thunderstorms  Fog  Heavy snow  Heavy precipitations  Wind > 20 kt
SIGMETs :     Misc.  Thunderstorms  Icing  Turbulence  Mountain Waves  Volcanic Ashes






- Airport Elevation : 219 ft
- IATA code : DNR


LFRD - Dinard

CURRENT METAR :
  • 192230Z AUTO 15009KT 120V180 6000 NSC 05/04 Q1014 TEMPO 4000 BR BKN005

EXPIRED METARs :
  • 192200Z AUTO 15011KT 7000 BKN046 OVC230 06/04 Q1014 TEMPO 4000 BR BKN005
  • 192130Z AUTO 15010KT 7000 FEW038 BKN049 BKN230 06/05 Q1014 TEMPO 4000 BR BKN005
  • 192100Z AUTO 14011KT 8000 BKN030 BKN035 OVC220 06/04 Q1014 TEMPO 4000 BR BKN005
  • 192030Z AUTO 15007KT 120V180 6000 NSC 05/05 Q1015 TEMPO 4000 BR BKN005
  • 192000Z AUTO 13007KT 5000 BR NSC 05/05 Q1014 TEMPO BKN005

TAF AMD TAF LFRD
Valid from the 19 at 18:00 until the 20 at 18:00 UTC


191844Z 1918/2018 15012KT 6000 NSC
TEMPO 1918/2007 4000 BR
TEMPO 1920/2009 BKN005
ATIS : +33 2 99 16 81 50



MET'MAP, your aeronautical weather chart ! - Copyright ORBIFLY December 2007 - Disclaimer

ORBIFLY MET'MAP TEAM :

Programming & Development : Alexandra Zaïnal
Concept & Development : Baudouin d'Aumeries
Co-Development & Prog : Marc-Olivier Méhu
Technical & hardware support : Manuel Goepfert

Contact : metmap@orbifly.com




SOURCES & CREDITS :

   NOAA